Time;durP1;ratioP1;P1;durP2;ratioP2;P2;SDS_P1;SDS_P2;PMS_P1;PMS_P2;Temp;Humidity;BMP_temperature;BMP_pressure;BME280_temperature;BME280_humidity;BME280_pressure;Samples;Min_cycle;Max_cycle;Signal;HPM_P1;HPM_P2
2022/04/28 00:00:58;;;;;;;;;;;16.90;56.40;;;;;;2020883;28;20277;-67
2022/04/28 00:01:56;;;;;;;;;;;16.90;56.40;;;;;;2020190;28;19967;-67
2022/04/28 00:02:55;;;;;;;;;;;16.90;56.40;;;;;;2021250;28;19995;-67
2022/04/28 00:03:53;;;;;;;;;;;16.90;56.50;;;;;;2021530;28;19996;-67
2022/04/28 00:04:52;;;;;;;;;;;16.90;56.40;;;;;;2021764;28;19911;-67
2022/04/28 00:05:50;;;;;;;;;;;16.90;56.50;;;;;;2021378;28;20245;-66
2022/04/28 00:06:49;;;;;;;;;;;16.90;56.50;;;;;;2021361;28;20029;-67
2022/04/28 00:07:48;;;;;;;;;;;16.90;56.40;;;;;;2021458;28;19905;-66
2022/04/28 00:08:46;;;;;;;;;;;16.90;56.50;;;;;;2021348;28;19912;-66
2022/04/28 00:09:45;;;;;;;;;;;16.90;56.50;;;;;;2021529;28;19904;-66
2022/04/28 00:10:43;;;;;;;;;;;16.90;56.50;;;;;;2021514;28;19905;-66
2022/04/28 00:11:42;;;;;;;;;;;16.90;56.50;;;;;;2021586;28;20276;-65
2022/04/28 00:12:40;;;;;;;;;;;16.90;56.50;;;;;;2021813;28;19905;-66
2022/04/28 00:13:40;;;;;;;;;;;16.90;56.50;;;;;;2021688;28;19911;-67
2022/04/28 00:14:38;;;;;;;;;;;16.90;56.60;;;;;;2021500;28;19911;-66
2022/04/28 00:15:37;;;;;;;;;;;16.90;56.50;;;;;;2021903;28;19916;-67
2022/04/28 00:16:36;;;;;;;;;;;16.90;56.50;;;;;;2021445;28;20272;-66
2022/04/28 00:17:34;;;;;;;;;;;16.90;56.50;;;;;;2021487;28;19983;-67
2022/04/28 00:18:33;;;;;;;;;;;16.90;56.60;;;;;;2021566;28;19905;-67
2022/04/28 00:19:31;;;;;;;;;;;17.00;56.60;;;;;;2021495;28;19904;-66
2022/04/28 00:20:29;;;;;;;;;;;16.90;56.60;;;;;;2021440;28;19906;-66
2022/04/28 00:21:28;;;;;;;;;;;16.90;56.60;;;;;;2021403;28;19905;-67
2022/04/28 00:22:26;;;;;;;;;;;16.90;56.60;;;;;;2021434;28;20402;-67
2022/04/28 00:23:25;;;;;;;;;;;16.90;56.60;;;;;;2021443;28;19998;-67
2022/04/28 00:24:23;;;;;;;;;;;16.90;56.60;;;;;;2021460;28;20322;-66
2022/04/28 00:25:22;;;;;;;;;;;16.90;56.60;;;;;;2021368;28;20280;-67
2022/04/28 00:26:21;;;;;;;;;;;16.90;56.60;;;;;;2021448;28;19905;-66
2022/04/28 00:27:19;;;;;;;;;;;16.90;56.60;;;;;;2021437;28;20332;-67
2022/04/28 00:28:20;;;;;;;;;;;16.90;56.70;;;;;;2021360;28;19904;-66
2022/04/28 00:29:19;;;;;;;;;;;16.80;56.60;;;;;;2021275;28;19909;-66
2022/04/28 00:30:17;;;;;;;;;;;16.90;56.70;;;;;;2021376;28;19959;-66
2022/04/28 00:31:16;;;;;;;;;;;16.90;56.70;;;;;;2021427;28;19912;-66
2022/04/28 00:32:14;;;;;;;;;;;16.90;56.70;;;;;;2021529;28;19911;-67
2022/04/28 00:33:13;;;;;;;;;;;16.90;56.80;;;;;;2021421;28;19996;-67
2022/04/28 00:34:11;;;;;;;;;;;16.90;56.60;;;;;;2021385;28;19973;-66
2022/04/28 00:35:09;;;;;;;;;;;16.90;56.70;;;;;;2021274;28;19909;-65
2022/04/28 00:36:10;;;;;;;;;;;16.90;56.70;;;;;;2021226;28;20002;-66
2022/04/28 00:37:09;;;;;;;;;;;16.80;56.60;;;;;;2021262;28;19905;-66
2022/04/28 00:38:07;;;;;;;;;;;16.80;56.60;;;;;;2021280;28;19970;-66
2022/04/28 00:39:06;;;;;;;;;;;16.80;56.60;;;;;;2021308;28;20270;-65
2022/04/28 00:40:05;;;;;;;;;;;16.90;56.80;;;;;;2021059;28;19904;-65
2022/04/28 00:41:03;;;;;;;;;;;16.90;56.80;;;;;;2021298;28;19936;-66
2022/04/28 00:42:06;;;;;;;;;;;16.90;56.80;;;;;;2021328;28;19912;-67
2022/04/28 00:43:20;;;;;;;;;;;16.90;56.70;;;;;;2021169;28;19920;-66
2022/04/28 00:44:18;;;;;;;;;;;16.80;56.70;;;;;;2021261;28;20332;-66
2022/04/28 00:45:16;;;;;;;;;;;16.80;56.70;;;;;;2021255;28;19908;-66
2022/04/28 00:46:15;;;;;;;;;;;16.80;56.70;;;;;;2021171;28;19987;-66
2022/04/28 00:47:14;;;;;;;;;;;16.80;56.70;;;;;;2021168;28;19905;-66
2022/04/28 00:50:47;;;;;;;;;;;16.80;56.60;;;;;;2021406;28;19909;-66
2022/04/28 00:51:47;;;;;;;;;;;16.80;56.70;;;;;;2021064;28;19904;-67
2022/04/28 00:52:47;;;;;;;;;;;16.80;56.70;;;;;;2021148;28;20364;-66
2022/04/28 00:53:48;;;;;;;;;;;16.80;56.70;;;;;;2021194;28;20257;-66
2022/04/28 00:54:47;;;;;;;;;;;16.80;56.70;;;;;;2021295;28;20249;-67
2022/04/28 00:55:45;;;;;;;;;;;16.80;56.70;;;;;;2021176;28;19935;-66
2022/04/28 00:56:44;;;;;;;;;;;16.80;56.70;;;;;;2021188;28;19999;-66
2022/04/28 00:57:42;;;;;;;;;;;16.80;56.70;;;;;;2021263;28;19999;-65
2022/04/28 00:58:41;;;;;;;;;;;16.80;56.70;;;;;;2021185;28;20034;-66
2022/04/28 00:59:40;;;;;;;;;;;16.80;56.70;;;;;;2021132;28;20334;-66
2022/04/28 01:00:39;;;;;;;;;;;16.80;56.70;;;;;;2021087;28;19925;-66
2022/04/28 01:01:38;;;;;;;;;;;16.80;56.70;;;;;;2021133;28;19911;-66
2022/04/28 01:02:36;;;;;;;;;;;16.80;56.80;;;;;;2021171;28;20355;-66
2022/04/28 01:03:35;;;;;;;;;;;16.80;56.70;;;;;;2021152;28;19912;-66
2022/04/28 01:04:34;;;;;;;;;;;16.80;57.40;;;;;;2020281;28;20371;-66
2022/04/28 01:05:32;;;;;;;;;;;16.80;56.80;;;;;;2020369;28;19997;-66
2022/04/28 01:06:30;;;;;;;;;;;16.80;56.70;;;;;;2021078;28;19904;-66
2022/04/28 01:07:29;;;;;;;;;;;16.80;56.70;;;;;;2021260;28;19905;-66
2022/04/28 01:08:27;;;;;;;;;;;16.80;56.70;;;;;;2021119;28;19991;-66
2022/04/28 01:09:26;;;;;;;;;;;16.90;56.70;;;;;;2021048;28;20341;-66
2022/04/28 01:10:24;;;;;;;;;;;16.80;56.60;;;;;;2021216;28;20341;-66
2022/04/28 01:11:23;;;;;;;;;;;16.80;56.60;;;;;;2021088;28;20248;-66
2022/04/28 01:12:24;;;;;;;;;;;16.80;56.60;;;;;;2021021;28;19951;-65
2022/04/28 01:13:22;;;;;;;;;;;16.80;56.60;;;;;;2020973;28;20241;-66
2022/04/28 01:14:21;;;;;;;;;;;16.80;56.60;;;;;;2025646;28;19911;-66
2022/04/28 01:15:20;;;;;;;;;;;16.80;56.60;;;;;;2025402;28;19978;-66
2022/04/28 01:16:18;;;;;;;;;;;16.80;56.60;;;;;;2024776;28;19924;-66
2022/04/28 01:17:16;;;;;;;;;;;16.80;56.70;;;;;;2025540;28;19908;-66
2022/04/28 01:18:15;;;;;;;;;;;16.80;56.70;;;;;;2022789;28;19905;-66
2022/04/28 01:19:14;;;;;;;;;;;16.80;56.60;;;;;;2023339;28;20326;-66
2022/04/28 01:20:13;;;;;;;;;;;16.80;56.60;;;;;;2023476;28;19908;-65
2022/04/28 01:21:12;;;;;;;;;;;16.90;56.70;;;;;;2023431;28;19955;-66
2022/04/28 01:22:10;;;;;;;;;;;16.80;56.60;;;;;;2022578;28;19912;-66
2022/04/28 01:23:09;;;;;;;;;;;16.90;56.70;;;;;;2021616;28;19992;-66
2022/04/28 01:24:08;;;;;;;;;;;16.90;56.70;;;;;;2021105;28;19905;-65
2022/04/28 01:25:08;;;;;;;;;;;16.80;56.70;;;;;;2021087;28;19927;-66
2022/04/28 01:26:06;;;;;;;;;;;16.80;56.70;;;;;;2021130;28;19904;-66
2022/04/28 01:27:06;;;;;;;;;;;16.80;56.70;;;;;;2021191;28;19911;-66
2022/04/28 01:28:04;;;;;;;;;;;16.80;56.70;;;;;;2021163;28;20011;-65
2022/04/28 01:29:03;;;;;;;;;;;16.80;56.70;;;;;;2020247;28;19919;-67
2022/04/28 01:30:02;;;;;;;;;;;16.80;56.70;;;;;;2020381;28;19905;-66
2022/04/28 01:31:01;;;;;;;;;;;16.80;56.60;;;;;;2020923;28;20003;-66
2022/04/28 01:32:00;;;;;;;;;;;16.80;56.60;;;;;;2021073;28;19905;-66
2022/04/28 01:32:58;;;;;;;;;;;16.80;56.70;;;;;;2020982;28;19944;-65
2022/04/28 01:33:57;;;;;;;;;;;16.80;56.60;;;;;;2021004;28;20029;-65
2022/04/28 01:34:56;;;;;;;;;;;16.80;56.60;;;;;;2020996;28;19911;-65
2022/04/28 01:35:54;;;;;;;;;;;16.80;56.60;;;;;;2021022;28;20363;-65
2022/04/28 01:36:53;;;;;;;;;;;16.80;56.70;;;;;;2020838;28;19905;-66
2022/04/28 01:37:52;;;;;;;;;;;16.80;56.60;;;;;;2021033;28;20323;-66
2022/04/28 01:38:50;;;;;;;;;;;16.80;56.70;;;;;;2021086;28;19905;-65
2022/04/28 01:39:49;;;;;;;;;;;16.80;56.70;;;;;;2020896;28;19950;-66
2022/04/28 01:40:47;;;;;;;;;;;16.80;56.60;;;;;;2020629;28;19995;-66
2022/04/28 01:41:49;;;;;;;;;;;16.80;56.60;;;;;;2020750;28;19943;-66
2022/04/28 01:42:48;;;;;;;;;;;16.80;56.70;;;;;;2020864;28;19905;-66
2022/04/28 01:43:46;;;;;;;;;;;16.80;56.70;;;;;;2020901;28;19924;-68
2022/04/28 01:44:45;;;;;;;;;;;16.80;56.70;;;;;;2021127;28;19911;-66
2022/04/28 01:45:43;;;;;;;;;;;16.80;56.70;;;;;;2020930;28;19904;-66
2022/04/28 01:46:42;;;;;;;;;;;16.80;56.70;;;;;;2020957;28;19905;-66
2022/04/28 01:47:40;;;;;;;;;;;16.80;56.70;;;;;;2020941;28;19911;-66
2022/04/28 01:48:39;;;;;;;;;;;16.80;56.70;;;;;;2020885;28;20046;-66
2022/04/28 01:49:37;;;;;;;;;;;16.80;56.80;;;;;;2020180;28;19909;-66
2022/04/28 01:50:36;;;;;;;;;;;16.80;56.70;;;;;;2020447;28;19904;-66
2022/04/28 01:55:31;;;;;;;;;;;16.80;56.80;;;;;;2028877;28;19908;-67
2022/04/28 01:56:29;;;;;;;;;;;16.80;56.80;;;;;;2028191;28;19905;-66
2022/04/28 01:57:32;;;;;;;;;;;16.80;56.70;;;;;;2024347;28;19954;-66
2022/04/28 01:58:30;;;;;;;;;;;16.80;56.80;;;;;;2020414;28;19911;-67
2022/04/28 01:59:29;;;;;;;;;;;16.80;56.80;;;;;;2020312;28;19904;-65
2022/04/28 02:00:29;;;;;;;;;;;16.80;56.80;;;;;;2020791;28;20344;-66
2022/04/28 02:01:27;;;;;;;;;;;16.80;56.90;;;;;;2020914;28;20335;-66
2022/04/28 02:02:26;;;;;;;;;;;16.80;56.80;;;;;;2020341;28;19904;-65
2022/04/28 02:03:25;;;;;;;;;;;16.80;56.80;;;;;;2020253;28;19908;-65
2022/04/28 02:04:23;;;;;;;;;;;16.80;56.80;;;;;;2020852;28;20013;-65
2022/04/28 02:05:22;;;;;;;;;;;16.80;56.80;;;;;;2020756;28;19911;-65
2022/04/28 02:06:20;;;;;;;;;;;16.80;56.80;;;;;;2020770;28;19913;-65
2022/04/28 02:07:18;;;;;;;;;;;16.80;56.80;;;;;;2020842;28;19911;-65
2022/04/28 02:08:17;;;;;;;;;;;16.80;56.80;;;;;;2020876;28;19905;-65
2022/04/28 02:09:15;;;;;;;;;;;16.80;56.80;;;;;;2020724;28;19912;-65
2022/04/28 02:10:14;;;;;;;;;;;16.80;56.80;;;;;;2020884;28;19912;-65
2022/04/28 02:11:13;;;;;;;;;;;16.80;56.80;;;;;;2020857;28;19924;-65
2022/04/28 02:12:14;;;;;;;;;;;16.80;56.90;;;;;;2020967;28;19904;-66
2022/04/28 02:13:13;;;;;;;;;;;16.70;56.70;;;;;;2020783;28;19964;-65
2022/04/28 02:14:11;;;;;;;;;;;16.80;56.90;;;;;;2020884;28;19905;-66
2022/04/28 02:15:10;;;;;;;;;;;16.70;56.80;;;;;;2020811;28;20268;-65
2022/04/28 02:16:10;;;;;;;;;;;16.70;56.80;;;;;;2020868;28;19904;-65
2022/04/28 02:17:09;;;;;;;;;;;16.80;56.90;;;;;;2020869;28;19912;-66
2022/04/28 02:18:07;;;;;;;;;;;16.80;56.80;;;;;;2020754;28;19905;-66
2022/04/28 02:19:06;;;;;;;;;;;16.70;56.80;;;;;;2021024;28;19905;-65
2022/04/28 02:20:05;;;;;;;;;;;16.80;56.90;;;;;;2020971;28;19905;-64
2022/04/28 02:21:04;;;;;;;;;;;16.70;56.80;;;;;;2020875;28;20348;-65
2022/04/28 02:22:03;;;;;;;;;;;16.70;56.80;;;;;;2020747;28;19905;-65
2022/04/28 02:23:02;;;;;;;;;;;16.70;56.80;;;;;;2020861;28;20240;-65
2022/04/28 02:24:01;;;;;;;;;;;16.70;56.80;;;;;;2020806;28;19962;-66
2022/04/28 02:24:59;;;;;;;;;;;16.70;56.80;;;;;;2020724;28;19904;-66
2022/04/28 02:25:58;;;;;;;;;;;16.80;56.90;;;;;;2022133;28;19931;-66
2022/04/28 02:26:56;;;;;;;;;;;16.70;56.80;;;;;;2022504;28;20017;-66
2022/04/28 02:27:55;;;;;;;;;;;16.70;56.80;;;;;;2022355;28;20275;-66
2022/04/28 02:28:53;;;;;;;;;;;16.70;56.80;;;;;;2021552;28;19905;-66
2022/04/28 02:29:51;;;;;;;;;;;16.70;56.80;;;;;;2021783;28;19911;-65
2022/04/28 02:30:50;;;;;;;;;;;16.70;56.90;;;;;;2022180;28;19919;-66
2022/04/28 02:31:48;;;;;;;;;;;16.70;56.90;;;;;;2022363;28;19971;-66
2022/04/28 02:34:04;;;;;;;;;;;16.70;56.90;;;;;;2022592;28;20264;-66
2022/04/28 02:35:04;;;;;;;;;;;16.70;57.00;;;;;;2022379;28;20000;-66
2022/04/28 02:36:03;;;;;;;;;;;16.70;57.00;;;;;;2022300;28;19920;-66
2022/04/28 02:37:01;;;;;;;;;;;16.70;57.00;;;;;;2022329;28;19912;-66
2022/04/28 02:37:59;;;;;;;;;;;16.70;56.90;;;;;;2022249;28;20360;-66
2022/04/28 02:38:58;;;;;;;;;;;16.70;56.90;;;;;;2022459;28;19991;-66
2022/04/28 02:39:57;;;;;;;;;;;16.70;56.90;;;;;;2022345;28;20363;-66
2022/04/28 02:40:56;;;;;;;;;;;16.70;57.00;;;;;;2022324;28;19905;-66
2022/04/28 02:41:54;;;;;;;;;;;16.70;57.60;;;;;;2021946;28;19905;-66
2022/04/28 02:42:53;;;;;;;;;;;16.70;57.00;;;;;;2022267;28;19912;-66
2022/04/28 02:43:51;;;;;;;;;;;16.70;57.00;;;;;;2022283;28;20328;-66
2022/04/28 02:44:50;;;;;;;;;;;16.70;57.00;;;;;;2022146;28;20356;-66
2022/04/28 02:45:49;;;;;;;;;;;16.70;57.00;;;;;;2022152;28;19959;-66
2022/04/28 02:46:48;;;;;;;;;;;16.70;57.10;;;;;;2022070;28;19916;-67
2022/04/28 02:47:46;;;;;;;;;;;16.70;57.10;;;;;;2022485;28;19905;-66
2022/04/28 02:48:45;;;;;;;;;;;16.70;57.10;;;;;;2022061;28;19981;-67
2022/04/28 02:49:43;;;;;;;;;;;16.70;57.00;;;;;;2022033;28;20332;-66
2022/04/28 02:50:42;;;;;;;;;;;16.70;57.00;;;;;;2022069;28;19905;-67
2022/04/28 02:51:40;;;;;;;;;;;16.70;57.00;;;;;;2022037;28;19944;-66
2022/04/28 02:52:39;;;;;;;;;;;16.70;57.00;;;;;;2022044;28;19936;-67
2022/04/28 02:53:38;;;;;;;;;;;16.70;57.10;;;;;;2022088;28;19904;-66
2022/04/28 02:54:36;;;;;;;;;;;16.70;57.10;;;;;;2021997;28;19944;-66
2022/04/28 02:55:35;;;;;;;;;;;16.70;57.00;;;;;;2022143;28;20366;-66
2022/04/28 02:56:33;;;;;;;;;;;16.70;57.00;;;;;;2022081;28;19916;-67
2022/04/28 02:57:32;;;;;;;;;;;16.70;57.10;;;;;;2022218;28;19971;-67
2022/04/28 02:58:32;;;;;;;;;;;16.60;57.00;;;;;;2022050;28;19905;-67
2022/04/28 02:59:31;;;;;;;;;;;16.60;57.00;;;;;;2022075;28;19911;-66
2022/04/28 03:00:30;;;;;;;;;;;16.60;57.10;;;;;;2021947;28;19909;-66
2022/04/28 03:01:28;;;;;;;;;;;16.70;57.80;;;;;;2022176;28;19904;-66
2022/04/28 03:02:30;;;;;;;;;;;16.60;57.10;;;;;;2022127;28;19909;-66
2022/04/28 03:03:29;;;;;;;;;;;16.70;57.10;;;;;;2022122;28;19904;-66
2022/04/28 03:04:28;;;;;;;;;;;16.60;57.00;;;;;;2022038;28;19912;-66
2022/04/28 03:05:27;;;;;;;;;;;16.60;57.10;;;;;;2021817;28;19946;-66
2022/04/28 03:11:41;;;;;;;;;;;16.60;57.20;;;;;;2022184;28;19904;-66
2022/04/28 03:12:39;;;;;;;;;;;16.60;57.20;;;;;;2022179;28;19987;-66
2022/04/28 03:13:39;;;;;;;;;;;16.70;57.20;;;;;;2022050;28;19905;-66
2022/04/28 03:14:37;;;;;;;;;;;16.60;57.10;;;;;;2022027;28;20367;-65
2022/04/28 03:15:36;;;;;;;;;;;16.70;57.20;;;;;;2022139;28;19905;-66
2022/04/28 03:16:36;;;;;;;;;;;16.70;57.10;;;;;;2021763;28;20344;-66
2022/04/28 03:17:34;;;;;;;;;;;16.60;57.10;;;;;;2021839;28;19905;-66
2022/04/28 03:18:33;;;;;;;;;;;16.60;57.10;;;;;;2021975;28;19905;-66
2022/04/28 03:19:32;;;;;;;;;;;16.60;57.10;;;;;;2021865;28;19911;-66
2022/04/28 03:20:30;;;;;;;;;;;16.60;57.10;;;;;;2021436;28;19908;-66
2022/04/28 03:21:28;;;;;;;;;;;16.60;57.10;;;;;;2021438;28;19904;-67
2022/04/28 03:22:27;;;;;;;;;;;16.60;57.20;;;;;;2021837;28;20267;-66
2022/04/28 03:23:25;;;;;;;;;;;16.60;57.20;;;;;;2022001;28;19915;-66
2022/04/28 03:24:24;;;;;;;;;;;16.60;57.20;;;;;;2021121;28;19904;-66
2022/04/28 03:25:24;;;;;;;;;;;16.60;57.30;;;;;;2021390;28;19905;-66
2022/04/28 03:26:22;;;;;;;;;;;16.60;57.30;;;;;;2021885;28;19905;-66
2022/04/28 03:27:21;;;;;;;;;;;16.60;57.20;;;;;;2021900;28;19962;-66
2022/04/28 03:28:19;;;;;;;;;;;16.60;57.20;;;;;;2021908;28;20314;-66
2022/04/28 03:29:18;;;;;;;;;;;16.60;57.20;;;;;;2021643;28;19961;-67
2022/04/28 03:30:16;;;;;;;;;;;16.60;57.20;;;;;;2021803;28;20348;-67
2022/04/28 03:31:15;;;;;;;;;;;16.60;57.30;;;;;;2021858;28;20296;-67
2022/04/28 03:32:13;;;;;;;;;;;16.60;57.30;;;;;;2021807;28;19905;-67
2022/04/28 03:33:12;;;;;;;;;;;16.60;57.30;;;;;;2021917;28;20016;-67
2022/04/28 03:34:11;;;;;;;;;;;16.60;57.30;;;;;;2021995;28;19981;-67
2022/04/28 03:35:11;;;;;;;;;;;16.60;57.30;;;;;;2021788;28;19904;-67
2022/04/28 03:37:27;;;;;;;;;;;16.60;57.30;;;;;;2021834;28;19904;-66
2022/04/28 03:38:25;;;;;;;;;;;16.60;57.40;;;;;;2021814;28;19909;-66
2022/04/28 03:39:23;;;;;;;;;;;16.60;57.40;;;;;;2021743;28;19951;-66
2022/04/28 03:40:22;;;;;;;;;;;16.50;57.30;;;;;;2021704;28;20280;-67
2022/04/28 03:41:20;;;;;;;;;;;16.60;57.40;;;;;;2020848;28;19915;-67
2022/04/28 03:42:19;;;;;;;;;;;16.50;57.30;;;;;;2021035;28;20303;-67
2022/04/28 03:43:18;;;;;;;;;;;16.50;57.30;;;;;;2021664;28;19911;-67
2022/04/28 03:44:17;;;;;;;;;;;16.60;57.50;;;;;;2021999;28;19912;-67
2022/04/28 03:45:17;;;;;;;;;;;16.60;57.50;;;;;;2021732;28;19932;-66
2022/04/28 03:46:18;;;;;;;;;;;16.50;57.40;;;;;;2021774;28;19926;-66
2022/04/28 03:47:16;;;;;;;;;;;16.60;57.50;;;;;;2021674;28;19951;-67
2022/04/28 03:48:16;;;;;;;;;;;16.60;57.50;;;;;;2021765;28;20318;-67
2022/04/28 03:49:14;;;;;;;;;;;16.50;57.30;;;;;;2021715;28;19971;-67
2022/04/28 03:50:12;;;;;;;;;;;16.50;57.40;;;;;;2021708;28;19970;-66
2022/04/28 03:51:11;;;;;;;;;;;16.50;57.30;;;;;;2021751;28;19905;-65
2022/04/28 03:52:09;;;;;;;;;;;16.50;57.40;;;;;;2021706;28;20355;-65
2022/04/28 03:53:08;;;;;;;;;;;16.50;57.40;;;;;;2021726;28;20295;-67
2022/04/28 03:54:06;;;;;;;;;;;16.50;57.40;;;;;;2021540;28;19909;-67
2022/04/28 03:55:05;;;;;;;;;;;16.50;57.50;;;;;;2021615;28;19905;-65
2022/04/28 03:56:04;;;;;;;;;;;16.50;57.50;;;;;;2021982;28;20362;-65
2022/04/28 03:57:03;;;;;;;;;;;16.50;57.50;;;;;;2021645;28;19955;-66
2022/04/28 03:58:01;;;;;;;;;;;16.50;57.50;;;;;;2021749;28;19936;-66
2022/04/28 03:59:00;;;;;;;;;;;16.60;57.60;;;;;;2021741;28;20272;-65
2022/04/28 03:59:59;;;;;;;;;;;16.60;57.60;;;;;;2021641;28;19904;-65
2022/04/28 04:00:57;;;;;;;;;;;16.50;57.50;;;;;;2021593;28;20003;-65
2022/04/28 04:01:56;;;;;;;;;;;16.50;57.50;;;;;;2022165;28;19936;-65
2022/04/28 04:02:54;;;;;;;;;;;16.50;57.50;;;;;;2027080;28;19958;-65
2022/04/28 04:03:53;;;;;;;;;;;16.50;57.50;;;;;;2025479;28;19905;-67
2022/04/28 04:04:51;;;;;;;;;;;16.50;57.50;;;;;;2028823;28;19905;-67
2022/04/28 04:05:49;;;;;;;;;;;16.50;57.60;;;;;;2025295;28;19976;-64
2022/04/28 04:06:48;;;;;;;;;;;16.50;57.60;;;;;;2022779;28;20309;-65
2022/04/28 04:07:46;;;;;;;;;;;16.50;57.50;;;;;;2013322;28;19967;-65
2022/04/28 04:08:45;;;;;;;;;;;16.50;57.60;;;;;;2013308;28;19913;-65
2022/04/28 04:09:44;;;;;;;;;;;16.50;57.60;;;;;;2020882;28;19924;-65
2022/04/28 04:10:42;;;;;;;;;;;16.50;57.60;;;;;;2021015;28;19954;-65
2022/04/28 04:11:41;;;;;;;;;;;16.50;57.60;;;;;;2021758;28;20003;-65
2022/04/28 04:12:39;;;;;;;;;;;16.50;57.60;;;;;;2021558;28;19904;-65
2022/04/28 04:13:39;;;;;;;;;;;16.50;57.60;;;;;;2021739;28;19951;-66
2022/04/28 04:14:38;;;;;;;;;;;16.50;57.60;;;;;;2021662;28;19912;-66
2022/04/28 04:15:36;;;;;;;;;;;16.50;57.70;;;;;;2021639;28;19915;-66
2022/04/28 04:16:34;;;;;;;;;;;16.50;57.60;;;;;;2021585;28;19905;-65
2022/04/28 04:17:38;;;;;;;;;;;16.50;57.60;;;;;;2021622;28;19904;-65
2022/04/28 04:18:37;;;;;;;;;;;16.50;57.60;;;;;;2021641;28;19986;-65
2022/04/28 04:19:35;;;;;;;;;;;16.50;57.70;;;;;;2021542;28;19952;-66
2022/04/28 04:20:34;;;;;;;;;;;16.50;57.60;;;;;;2021543;28;19905;-65
2022/04/28 04:21:33;;;;;;;;;;;16.50;57.70;;;;;;2021443;28;20295;-66
2022/04/28 04:22:31;;;;;;;;;;;16.60;57.70;;;;;;2021543;28;19905;-65
2022/04/28 04:23:31;;;;;;;;;;;16.50;57.60;;;;;;2021448;28;19911;-65
2022/04/28 04:24:30;;;;;;;;;;;16.50;57.70;;;;;;2021323;28;19954;-66
2022/04/28 04:25:28;;;;;;;;;;;16.50;57.70;;;;;;2021428;28;19958;-66
2022/04/28 04:26:27;;;;;;;;;;;16.50;57.70;;;;;;2021497;28;20381;-65
2022/04/28 04:27:25;;;;;;;;;;;16.50;57.70;;;;;;2020920;28;20065;-67
2022/04/28 04:28:24;;;;;;;;;;;16.50;57.80;;;;;;2020704;28;19904;-66
2022/04/28 04:29:22;;;;;;;;;;;16.50;57.70;;;;;;2021194;28;20376;-67
2022/04/28 04:32:56;;;;;;;;;;;16.50;57.70;;;;;;1996831;28;19906;-67
2022/04/28 04:33:56;;;;;;;;;;;16.50;57.70;;;;;;2015073;28;19905;-66
2022/04/28 04:34:55;;;;;;;;;;;16.50;57.80;;;;;;2021355;28;19904;-66
2022/04/28 04:35:54;;;;;;;;;;;16.50;57.70;;;;;;2021305;28;20281;-66
2022/04/28 04:36:54;;;;;;;;;;;16.50;57.70;;;;;;2021307;28;19912;-66
2022/04/28 04:37:53;;;;;;;;;;;16.50;57.70;;;;;;2021326;28;19905;-66
2022/04/28 04:38:51;;;;;;;;;;;16.50;57.80;;;;;;2021187;28;19905;-66
2022/04/28 04:39:50;;;;;;;;;;;16.50;57.80;;;;;;2021421;28;19904;-66
2022/04/28 04:40:48;;;;;;;;;;;16.50;57.80;;;;;;2021269;28;19984;-66
2022/04/28 04:41:46;;;;;;;;;;;16.50;57.70;;;;;;2021295;28;19979;-66
2022/04/28 04:42:45;;;;;;;;;;;16.50;57.70;;;;;;2021410;28;19912;-66
2022/04/28 04:43:43;;;;;;;;;;;16.50;57.70;;;;;;2021279;28;20001;-66
2022/04/28 04:44:43;;;;;;;;;;;16.40;57.70;;;;;;2021318;28;20275;-66
2022/04/28 04:45:45;;;;;;;;;;;16.50;57.80;;;;;;2021387;28;19912;-66
2022/04/28 04:46:43;;;;;;;;;;;16.50;57.80;;;;;;2021315;28;19909;-66
2022/04/28 04:47:42;;;;;;;;;;;16.40;57.70;;;;;;2021223;28;20008;-66
2022/04/28 04:48:40;;;;;;;;;;;16.50;57.80;;;;;;2020824;28;20072;-67
2022/04/28 04:49:39;;;;;;;;;;;16.50;57.80;;;;;;2020515;28;19920;-66
2022/04/28 04:50:38;;;;;;;;;;;16.50;57.80;;;;;;2020654;28;19991;-65
2022/04/28 04:51:36;;;;;;;;;;;16.40;57.70;;;;;;2021148;28;19999;-65
2022/04/28 04:52:35;;;;;;;;;;;16.50;57.70;;;;;;2021241;28;19991;-65
2022/04/28 04:53:33;;;;;;;;;;;16.50;57.70;;;;;;2021216;28;19958;-65
2022/04/28 04:54:32;;;;;;;;;;;16.50;57.70;;;;;;2021150;28;19988;-65
2022/04/28 04:55:31;;;;;;;;;;;16.60;57.80;;;;;;2020951;28;20176;-66
2022/04/28 04:56:30;;;;;;;;;;;16.50;57.70;;;;;;2021215;28;20360;-65
2022/04/28 04:57:28;;;;;;;;;;;16.50;57.60;;;;;;2021111;28;19940;-66
2022/04/28 04:58:27;;;;;;;;;;;16.50;57.50;;;;;;2021216;28;19909;-66
2022/04/28 04:59:25;;;;;;;;;;;16.50;57.50;;;;;;2021338;28;19916;-66
2022/04/28 05:00:24;;;;;;;;;;;16.50;57.50;;;;;;2021273;28;20340;-66
2022/04/28 05:01:22;;;;;;;;;;;16.60;57.60;;;;;;2021096;28;19927;-66
2022/04/28 05:02:23;;;;;;;;;;;16.50;57.50;;;;;;2021104;28;19952;-65
2022/04/28 05:03:21;;;;;;;;;;;16.50;57.50;;;;;;2021179;28;20433;-65
2022/04/28 05:04:20;;;;;;;;;;;16.50;57.50;;;;;;2021102;28;19905;-65
2022/04/28 05:05:18;;;;;;;;;;;16.60;57.60;;;;;;2021073;28;19904;-66
2022/04/28 05:06:16;;;;;;;;;;;16.50;57.50;;;;;;2020864;28;19916;-66
2022/04/28 05:07:15;;;;;;;;;;;16.60;57.60;;;;;;2021120;28;20004;-65
2022/04/28 05:08:14;;;;;;;;;;;16.50;57.60;;;;;;2021152;28;20017;-65
2022/04/28 05:09:12;;;;;;;;;;;16.60;57.70;;;;;;2021063;28;19916;-65
2022/04/28 05:10:11;;;;;;;;;;;16.50;57.70;;;;;;2021156;28;19998;-66
2022/04/28 05:11:09;;;;;;;;;;;16.50;57.70;;;;;;2021028;28;19966;-67
2022/04/28 05:12:08;;;;;;;;;;;16.50;57.70;;;;;;2021153;28;19911;-68
2022/04/28 05:13:08;;;;;;;;;;;16.50;57.70;;;;;;2021060;28;19931;-66
2022/04/28 05:14:06;;;;;;;;;;;16.50;57.70;;;;;;2020989;28;20329;-66
2022/04/28 05:15:05;;;;;;;;;;;16.50;57.70;;;;;;2021031;28;19976;-66
2022/04/28 05:16:03;;;;;;;;;;;16.50;57.80;;;;;;2021073;28;19911;-66
2022/04/28 05:17:02;;;;;;;;;;;16.50;58.00;;;;;;2021168;28;19904;-65
2022/04/28 05:18:00;;;;;;;;;;;16.50;57.90;;;;;;2021308;28;19905;-66
2022/04/28 05:18:59;;;;;;;;;;;16.50;57.80;;;;;;2021422;28;20005;-66
2022/04/28 05:19:58;;;;;;;;;;;16.50;57.90;;;;;;2021212;28;19908;-66
2022/04/28 05:20:57;;;;;;;;;;;16.60;57.90;;;;;;2021350;28;19995;-66
2022/04/28 05:21:55;;;;;;;;;;;16.50;57.90;;;;;;2021270;28;19972;-66
2022/04/28 05:22:53;;;;;;;;;;;16.60;57.90;;;;;;2021283;28;20003;-66
2022/04/28 05:23:52;;;;;;;;;;;16.60;57.90;;;;;;2021272;28;20256;-66
2022/04/28 05:24:50;;;;;;;;;;;16.60;57.90;;;;;;2021111;28;19947;-66
2022/04/28 05:25:49;;;;;;;;;;;16.60;57.90;;;;;;2021261;28;19949;-66
2022/04/28 05:26:48;;;;;;;;;;;16.60;58.00;;;;;;2020997;28;19909;-66
2022/04/28 05:27:46;;;;;;;;;;;16.60;58.00;;;;;;2021268;28;19908;-67
2022/04/28 05:28:44;;;;;;;;;;;16.60;58.00;;;;;;2021286;28;19905;-66
2022/04/28 05:29:43;;;;;;;;;;;16.60;58.00;;;;;;2021175;28;20260;-66
2022/04/28 05:30:43;;;;;;;;;;;16.60;57.90;;;;;;2021251;28;19944;-66
2022/04/28 05:31:41;;;;;;;;;;;16.60;58.00;;;;;;2021137;28;19904;-66
2022/04/28 05:32:41;;;;;;;;;;;16.60;58.00;;;;;;2021378;28;19912;-66
2022/04/28 05:33:42;;;;;;;;;;;16.60;58.00;;;;;;2021226;28;19911;-66
2022/04/28 05:34:40;;;;;;;;;;;16.60;58.00;;;;;;2021199;28;19912;-66
2022/04/28 05:35:40;;;;;;;;;;;16.60;58.00;;;;;;2021142;28;20004;-66
2022/04/28 05:36:40;;;;;;;;;;;16.60;58.00;;;;;;2021152;28;19905;-66
2022/04/28 05:37:39;;;;;;;;;;;16.60;58.00;;;;;;2020723;28;20411;-65
2022/04/28 05:38:37;;;;;;;;;;;16.60;58.10;;;;;;2021161;28;19909;-66
2022/04/28 05:39:36;;;;;;;;;;;16.70;58.20;;;;;;2021253;28;19905;-66
2022/04/28 05:40:34;;;;;;;;;;;16.70;58.10;;;;;;2021083;28;19904;-67
2022/04/28 05:41:34;;;;;;;;;;;16.70;58.10;;;;;;2021108;28;20491;-66
2022/04/28 05:46:27;;;;;;;;;;;16.70;58.30;;;;;;2021115;28;19908;-67
2022/04/28 05:47:25;;;;;;;;;;;16.70;58.30;;;;;;2021175;28;20316;-67
2022/04/28 05:48:24;;;;;;;;;;;16.70;59.00;;;;;;2021010;28;20265;-68
2022/04/28 05:49:23;;;;;;;;;;;16.70;59.00;;;;;;2021248;28;20458;-66
2022/04/28 05:50:21;;;;;;;;;;;16.80;58.40;;;;;;2020423;28;19905;-67
2022/04/28 05:51:20;;;;;;;;;;;16.70;59.50;;;;;;2020479;28;20273;-66
2022/04/28 05:52:18;;;;;;;;;;;16.80;59.60;;;;;;2019988;28;19909;-66
2022/04/28 05:53:17;;;;;;;;;;;16.80;59.30;;;;;;2020477;28;20395;-66
2022/04/28 05:54:15;;;;;;;;;;;16.80;59.20;;;;;;2021047;28;19908;-65
2022/04/28 05:55:14;;;;;;;;;;;16.70;59.00;;;;;;2021049;28;19954;-66
2022/04/28 05:56:12;;;;;;;;;;;16.80;59.00;;;;;;2021159;28;19904;-66
2022/04/28 05:57:14;;;;;;;;;;;16.80;59.00;;;;;;2021025;28;19976;-66
2022/04/28 05:58:13;;;;;;;;;;;16.80;59.50;;;;;;2020899;28;20000;-65
2022/04/28 05:59:11;;;;;;;;;;;16.80;58.90;;;;;;2020835;28;19960;-66
2022/04/28 06:00:10;;;;;;;;;;;16.80;58.90;;;;;;2020991;28;19912;-66
2022/04/28 06:01:09;;;;;;;;;;;16.80;58.90;;;;;;2022581;28;19905;-72
2022/04/28 06:02:07;;;;;;;;;;;16.70;58.80;;;;;;2022504;28;19909;-66
2022/04/28 06:03:05;;;;;;;;;;;16.80;58.90;;;;;;2022850;28;20429;-66